sensor_id;sensor_type;location;lat;lon;timestamp;P1;durP1;ratioP1;P2;durP2;ratioP2
3817;SDS011;1924;48.078;11.516;2024-02-28T00:00:54;27.93;;;0.80;;
3817;SDS011;1924;48.078;11.516;2024-02-28T00:03:21;27.90;;;0.80;;
3817;SDS011;1924;48.078;11.516;2024-02-28T00:05:48;27.90;;;0.80;;
3817;SDS011;1924;48.078;11.516;2024-02-28T00:08:15;27.90;;;0.80;;
3817;SDS011;1924;48.078;11.516;2024-02-28T00:10:44;27.90;;;0.80;;
3817;SDS011;1924;48.078;11.516;2024-02-28T00:13:11;27.90;;;0.80;;
3817;SDS011;1924;48.078;11.516;2024-02-28T00:15:39;28.00;;;0.80;;
3817;SDS011;1924;48.078;11.516;2024-02-28T00:18:06;28.00;;;0.80;;
3817;SDS011;1924;48.078;11.516;2024-02-28T00:20:33;28.00;;;0.80;;
3817;SDS011;1924;48.078;11.516;2024-02-28T00:23:00;27.90;;;0.80;;
3817;SDS011;1924;48.078;11.516;2024-02-28T00:25:27;27.90;;;0.80;;
3817;SDS011;1924;48.078;11.516;2024-02-28T00:27:53;27.80;;;0.80;;
3817;SDS011;1924;48.078;11.516;2024-02-28T00:30:20;27.90;;;0.80;;
3817;SDS011;1924;48.078;11.516;2024-02-28T00:32:48;28.00;;;0.80;;
3817;SDS011;1924;48.078;11.516;2024-02-28T00:35:15;28.00;;;0.80;;
3817;SDS011;1924;48.078;11.516;2024-02-28T00:37:42;28.10;;;0.80;;
3817;SDS011;1924;48.078;11.516;2024-02-28T00:40:09;27.90;;;0.80;;
3817;SDS011;1924;48.078;11.516;2024-02-28T00:42:36;27.90;;;0.80;;
3817;SDS011;1924;48.078;11.516;2024-02-28T00:45:03;27.90;;;0.80;;
3817;SDS011;1924;48.078;11.516;2024-02-28T00:47:30;28.00;;;0.80;;
3817;SDS011;1924;48.078;11.516;2024-02-28T00:49:58;28.10;;;0.80;;
3817;SDS011;1924;48.078;11.516;2024-02-28T00:52:28;28.00;;;0.80;;
3817;SDS011;1924;48.078;11.516;2024-02-28T00:54:55;27.90;;;0.80;;
3817;SDS011;1924;48.078;11.516;2024-02-28T00:57:22;27.90;;;0.80;;
3817;SDS011;1924;48.078;11.516;2024-02-28T00:59:49;28.00;;;0.80;;
3817;SDS011;1924;48.078;11.516;2024-02-28T01:02:16;28.00;;;0.80;;
3817;SDS011;1924;48.078;11.516;2024-02-28T01:04:43;27.90;;;0.80;;
3817;SDS011;1924;48.078;11.516;2024-02-28T01:07:11;27.97;;;0.77;;
3817;SDS011;1924;48.078;11.516;2024-02-28T01:09:37;27.93;;;0.80;;
3817;SDS011;1924;48.078;11.516;2024-02-28T05:00:17;28.40;;;0.80;;
3817;SDS011;1924;48.078;11.516;2024-02-28T05:02:44;28.30;;;0.80;;
3817;SDS011;1924;48.078;11.516;2024-02-28T05:05:11;28.20;;;0.80;;
3817;SDS011;1924;48.078;11.516;2024-02-28T05:07:38;28.20;;;0.80;;
3817;SDS011;1924;48.078;11.516;2024-02-28T05:10:05;28.20;;;0.80;;
3817;SDS011;1924;48.078;11.516;2024-02-28T05:12:33;28.10;;;0.80;;
3817;SDS011;1924;48.078;11.516;2024-02-28T05:14:59;28.20;;;0.80;;
3817;SDS011;1924;48.078;11.516;2024-02-28T05:17:28;28.30;;;0.80;;
3817;SDS011;1924;48.078;11.516;2024-02-28T05:19:54;28.30;;;0.80;;
3817;SDS011;1924;48.078;11.516;2024-02-28T05:22:22;28.10;;;0.80;;
3817;SDS011;1924;48.078;11.516;2024-02-28T05:24:48;28.10;;;0.80;;
3817;SDS011;1924;48.078;11.516;2024-02-28T05:27:15;28.07;;;0.80;;
3817;SDS011;1924;48.078;11.516;2024-02-28T05:29:42;28.20;;;0.80;;
3817;SDS011;1924;48.078;11.516;2024-02-28T05:32:09;28.20;;;0.80;;
3817;SDS011;1924;48.078;11.516;2024-02-28T05:34:37;28.20;;;0.90;;
3817;SDS011;1924;48.078;11.516;2024-02-28T05:37:05;28.30;;;0.80;;
3817;SDS011;1924;48.078;11.516;2024-02-28T05:39:32;28.10;;;0.80;;
3817;SDS011;1924;48.078;11.516;2024-02-28T05:41:59;28.10;;;0.80;;
3817;SDS011;1924;48.078;11.516;2024-02-28T05:44:26;28.10;;;0.80;;
3817;SDS011;1924;48.078;11.516;2024-02-28T05:46:52;28.17;;;0.80;;
3817;SDS011;1924;48.078;11.516;2024-02-28T05:49:19;28.10;;;0.80;;
3817;SDS011;1924;48.078;11.516;2024-02-28T05:51:49;28.07;;;0.80;;
3817;SDS011;1924;48.078;11.516;2024-02-28T05:54:15;28.20;;;0.80;;
3817;SDS011;1924;48.078;11.516;2024-02-28T05:56:43;28.07;;;0.80;;
3817;SDS011;1924;48.078;11.516;2024-02-28T05:59:10;28.30;;;0.80;;
3817;SDS011;1924;48.078;11.516;2024-02-28T06:01:38;28.00;;;0.80;;
3817;SDS011;1924;48.078;11.516;2024-02-28T06:04:05;28.10;;;0.80;;
3817;SDS011;1924;48.078;11.516;2024-02-28T06:06:32;28.00;;;0.80;;
3817;SDS011;1924;48.078;11.516;2024-02-28T06:09:00;28.20;;;0.80;;
3817;SDS011;1924;48.078;11.516;2024-02-28T06:11:27;28.10;;;0.80;;
3817;SDS011;1924;48.078;11.516;2024-02-28T06:13:54;28.00;;;0.80;;
3817;SDS011;1924;48.078;11.516;2024-02-28T06:16:20;28.20;;;0.80;;
3817;SDS011;1924;48.078;11.516;2024-02-28T06:18:47;28.30;;;0.80;;
3817;SDS011;1924;48.078;11.516;2024-02-28T06:21:15;28.20;;;0.80;;
3817;SDS011;1924;48.078;11.516;2024-02-28T06:23:41;28.10;;;0.80;;
3817;SDS011;1924;48.078;11.516;2024-02-28T06:26:09;28.07;;;0.80;;
3817;SDS011;1924;48.078;11.516;2024-02-28T06:28:41;28.30;;;0.80;;
3817;SDS011;1924;48.078;11.516;2024-02-28T06:31:11;28.10;;;0.80;;
3817;SDS011;1924;48.078;11.516;2024-02-28T06:33:39;28.10;;;0.80;;
3817;SDS011;1924;48.078;11.516;2024-02-28T06:36:06;28.10;;;0.80;;
3817;SDS011;1924;48.078;11.516;2024-02-28T06:38:32;28.20;;;0.80;;
3817;SDS011;1924;48.078;11.516;2024-02-28T06:41:00;28.30;;;0.80;;
3817;SDS011;1924;48.078;11.516;2024-02-28T06:43:29;28.10;;;0.80;;
3817;SDS011;1924;48.078;11.516;2024-02-28T06:45:56;28.20;;;0.80;;
3817;SDS011;1924;48.078;11.516;2024-02-28T06:48:22;28.10;;;0.80;;
3817;SDS011;1924;48.078;11.516;2024-02-28T06:50:49;28.10;;;0.80;;
3817;SDS011;1924;48.078;11.516;2024-02-28T06:53:16;28.07;;;0.80;;
3817;SDS011;1924;48.078;11.516;2024-02-28T06:55:43;28.20;;;0.80;;
3817;SDS011;1924;48.078;11.516;2024-02-28T06:58:10;28.07;;;0.80;;
3817;SDS011;1924;48.078;11.516;2024-02-28T07:00:38;28.17;;;0.80;;
3817;SDS011;1924;48.078;11.516;2024-02-28T07:03:05;28.20;;;0.80;;
3817;SDS011;1924;48.078;11.516;2024-02-28T07:05:32;28.10;;;0.80;;
3817;SDS011;1924;48.078;11.516;2024-02-28T07:07:59;28.30;;;0.80;;
3817;SDS011;1924;48.078;11.516;2024-02-28T07:10:26;28.20;;;0.80;;
3817;SDS011;1924;48.078;11.516;2024-02-28T07:12:52;28.10;;;0.80;;
3817;SDS011;1924;48.078;11.516;2024-02-28T07:15:19;28.20;;;0.80;;
3817;SDS011;1924;48.078;11.516;2024-02-28T07:17:47;28.10;;;0.80;;
3817;SDS011;1924;48.078;11.516;2024-02-28T07:20:14;28.30;;;0.80;;
3817;SDS011;1924;48.078;11.516;2024-02-28T07:22:42;28.40;;;0.80;;
3817;SDS011;1924;48.078;11.516;2024-02-28T07:25:09;28.40;;;0.80;;
3817;SDS011;1924;48.078;11.516;2024-02-28T07:27:36;28.17;;;0.80;;
3817;SDS011;1924;48.078;11.516;2024-02-28T07:30:03;28.40;;;0.80;;
3817;SDS011;1924;48.078;11.516;2024-02-28T07:32:31;28.40;;;0.80;;
3817;SDS011;1924;48.078;11.516;2024-02-28T07:35:01;28.30;;;0.80;;
3817;SDS011;1924;48.078;11.516;2024-02-28T07:37:28;28.20;;;0.80;;
3817;SDS011;1924;48.078;11.516;2024-02-28T07:39:55;28.57;;;0.80;;
3817;SDS011;1924;48.078;11.516;2024-02-28T07:42:23;28.40;;;0.80;;
3817;SDS011;1924;48.078;11.516;2024-02-28T07:44:49;28.20;;;0.80;;
3817;SDS011;1924;48.078;11.516;2024-02-28T07:47:21;28.17;;;0.80;;
3817;SDS011;1924;48.078;11.516;2024-02-28T07:49:48;28.30;;;0.80;;
3817;SDS011;1924;48.078;11.516;2024-02-28T07:52:16;28.10;;;0.80;;
3817;SDS011;1924;48.078;11.516;2024-02-28T07:54:43;28.10;;;0.80;;
3817;SDS011;1924;48.078;11.516;2024-02-28T07:57:10;28.30;;;0.80;;
3817;SDS011;1924;48.078;11.516;2024-02-28T07:59:40;28.30;;;0.80;;
3817;SDS011;1924;48.078;11.516;2024-02-28T08:02:07;28.20;;;0.80;;
3817;SDS011;1924;48.078;11.516;2024-02-28T08:04:34;28.40;;;0.80;;
3817;SDS011;1924;48.078;11.516;2024-02-28T08:07:01;28.30;;;0.80;;
3817;SDS011;1924;48.078;11.516;2024-02-28T08:09:29;28.10;;;0.80;;
3817;SDS011;1924;48.078;11.516;2024-02-28T08:11:56;28.30;;;0.80;;
3817;SDS011;1924;48.078;11.516;2024-02-28T08:14:24;28.20;;;0.80;;
3817;SDS011;1924;48.078;11.516;2024-02-28T08:16:51;28.30;;;0.80;;
3817;SDS011;1924;48.078;11.516;2024-02-28T08:19:17;28.30;;;0.80;;
3817;SDS011;1924;48.078;11.516;2024-02-28T08:21:44;28.20;;;0.80;;
3817;SDS011;1924;48.078;11.516;2024-02-28T08:24:11;28.37;;;0.80;;
3817;SDS011;1924;48.078;11.516;2024-02-28T08:26:39;28.20;;;0.80;;
3817;SDS011;1924;48.078;11.516;2024-02-28T08:29:07;28.30;;;0.80;;
3817;SDS011;1924;48.078;11.516;2024-02-28T08:31:39;28.30;;;0.80;;
3817;SDS011;1924;48.078;11.516;2024-02-28T08:34:06;28.30;;;0.80;;
3817;SDS011;1924;48.078;11.516;2024-02-28T08:36:33;28.10;;;0.80;;
3817;SDS011;1924;48.078;11.516;2024-02-28T08:39:01;28.10;;;0.80;;
3817;SDS011;1924;48.078;11.516;2024-02-28T08:41:29;28.03;;;0.80;;
3817;SDS011;1924;48.078;11.516;2024-02-28T08:43:58;28.20;;;0.80;;
3817;SDS011;1924;48.078;11.516;2024-02-28T08:46:25;28.07;;;0.80;;
3817;SDS011;1924;48.078;11.516;2024-02-28T08:48:52;28.20;;;0.80;;
3817;SDS011;1924;48.078;11.516;2024-02-28T08:51:19;28.10;;;0.80;;
3817;SDS011;1924;48.078;11.516;2024-02-28T08:53:45;28.20;;;0.80;;
3817;SDS011;1924;48.078;11.516;2024-02-28T08:56:12;28.17;;;0.80;;
3817;SDS011;1924;48.078;11.516;2024-02-28T08:58:39;28.00;;;0.80;;
3817;SDS011;1924;48.078;11.516;2024-02-28T09:01:07;28.20;;;0.80;;
3817;SDS011;1924;48.078;11.516;2024-02-28T09:03:34;28.10;;;0.80;;
3817;SDS011;1924;48.078;11.516;2024-02-28T09:06:00;28.20;;;0.80;;
3817;SDS011;1924;48.078;11.516;2024-02-28T09:08:28;28.20;;;0.80;;
3817;SDS011;1924;48.078;11.516;2024-02-28T09:10:55;28.20;;;0.80;;
3817;SDS011;1924;48.078;11.516;2024-02-28T09:13:21;28.20;;;0.80;;
3817;SDS011;1924;48.078;11.516;2024-02-28T09:15:48;28.30;;;0.80;;
3817;SDS011;1924;48.078;11.516;2024-02-28T09:18:17;28.30;;;0.80;;
3817;SDS011;1924;48.078;11.516;2024-02-28T09:20:43;28.50;;;0.80;;
3817;SDS011;1924;48.078;11.516;2024-02-28T09:23:10;28.20;;;0.80;;
3817;SDS011;1924;48.078;11.516;2024-02-28T09:25:37;28.30;;;0.80;;
3817;SDS011;1924;48.078;11.516;2024-02-28T09:28:04;28.50;;;0.90;;
3817;SDS011;1924;48.078;11.516;2024-02-28T09:30:30;28.40;;;0.80;;
3817;SDS011;1924;48.078;11.516;2024-02-28T09:32:57;28.30;;;0.80;;
3817;SDS011;1924;48.078;11.516;2024-02-28T09:35:25;28.47;;;0.80;;
3817;SDS011;1924;48.078;11.516;2024-02-28T09:37:52;28.47;;;0.80;;
3817;SDS011;1924;48.078;11.516;2024-02-28T09:40:19;28.40;;;0.80;;
3817;SDS011;1924;48.078;11.516;2024-02-28T09:42:47;28.40;;;0.80;;
3817;SDS011;1924;48.078;11.516;2024-02-28T09:45:18;28.50;;;0.80;;
3817;SDS011;1924;48.078;11.516;2024-02-28T09:47:47;28.60;;;0.80;;
3817;SDS011;1924;48.078;11.516;2024-02-28T09:50:14;28.50;;;0.80;;
3817;SDS011;1924;48.078;11.516;2024-02-28T09:52:43;28.47;;;0.80;;
3817;SDS011;1924;48.078;11.516;2024-02-28T09:55:09;28.30;;;0.80;;
3817;SDS011;1924;48.078;11.516;2024-02-28T09:57:36;28.50;;;0.80;;
3817;SDS011;1924;48.078;11.516;2024-02-28T10:00:05;28.30;;;0.80;;
3817;SDS011;1924;48.078;11.516;2024-02-28T10:02:34;28.37;;;0.80;;
3817;SDS011;1924;48.078;11.516;2024-02-28T10:05:03;28.40;;;0.80;;
3817;SDS011;1924;48.078;11.516;2024-02-28T10:07:31;28.60;;;0.80;;
3817;SDS011;1924;48.078;11.516;2024-02-28T10:09:59;28.60;;;0.90;;
3817;SDS011;1924;48.078;11.516;2024-02-28T10:12:26;28.47;;;0.80;;
3817;SDS011;1924;48.078;11.516;2024-02-28T10:14:53;28.60;;;0.80;;
3817;SDS011;1924;48.078;11.516;2024-02-28T10:17:19;28.40;;;0.80;;
3817;SDS011;1924;48.078;11.516;2024-02-28T10:19:46;28.50;;;0.80;;
3817;SDS011;1924;48.078;11.516;2024-02-28T10:22:13;28.60;;;0.80;;
3817;SDS011;1924;48.078;11.516;2024-02-28T10:24:40;28.60;;;0.80;;
3817;SDS011;1924;48.078;11.516;2024-02-28T10:27:08;28.70;;;0.80;;
3817;SDS011;1924;48.078;11.516;2024-02-28T10:29:35;28.70;;;0.80;;
3817;SDS011;1924;48.078;11.516;2024-02-28T10:32:02;28.70;;;0.80;;
3817;SDS011;1924;48.078;11.516;2024-02-28T10:34:30;28.50;;;0.80;;
3817;SDS011;1924;48.078;11.516;2024-02-28T10:37:00;28.60;;;0.80;;
3817;SDS011;1924;48.078;11.516;2024-02-28T10:39:29;28.53;;;0.80;;
3817;SDS011;1924;48.078;11.516;2024-02-28T10:41:57;28.27;;;0.80;;
3817;SDS011;1924;48.078;11.516;2024-02-28T10:44:27;28.70;;;0.80;;
3817;SDS011;1924;48.078;11.516;2024-02-28T10:46:55;28.70;;;0.80;;
3817;SDS011;1924;48.078;11.516;2024-02-28T10:49:23;28.60;;;0.80;;
3817;SDS011;1924;48.078;11.516;2024-02-28T10:51:50;28.60;;;0.80;;
3817;SDS011;1924;48.078;11.516;2024-02-28T10:54:20;28.57;;;0.80;;
3817;SDS011;1924;48.078;11.516;2024-02-28T10:56:50;28.50;;;0.80;;
3817;SDS011;1924;48.078;11.516;2024-02-28T10:59:19;28.30;;;0.80;;
3817;SDS011;1924;48.078;11.516;2024-02-28T11:01:50;28.40;;;0.80;;
3817;SDS011;1924;48.078;11.516;2024-02-28T11:04:19;28.30;;;0.80;;
3817;SDS011;1924;48.078;11.516;2024-02-28T11:06:47;28.20;;;0.80;;
3817;SDS011;1924;48.078;11.516;2024-02-28T11:09:18;28.40;;;0.80;;
3817;SDS011;1924;48.078;11.516;2024-02-28T11:11:47;28.20;;;0.80;;
3817;SDS011;1924;48.078;11.516;2024-02-28T11:14:14;28.20;;;0.80;;
3817;SDS011;1924;48.078;11.516;2024-02-28T11:16:41;28.30;;;0.80;;
3817;SDS011;1924;48.078;11.516;2024-02-28T11:19:18;28.20;;;0.80;;
3817;SDS011;1924;48.078;11.516;2024-02-28T11:21:45;28.30;;;0.80;;
3817;SDS011;1924;48.078;11.516;2024-02-28T11:24:17;28.20;;;0.80;;
3817;SDS011;1924;48.078;11.516;2024-02-28T11:26:44;28.20;;;0.80;;
3817;SDS011;1924;48.078;11.516;2024-02-28T11:29:11;28.30;;;0.80;;
3817;SDS011;1924;48.078;11.516;2024-02-28T11:31:38;28.30;;;0.80;;
3817;SDS011;1924;48.078;11.516;2024-02-28T11:34:04;28.20;;;0.80;;
3817;SDS011;1924;48.078;11.516;2024-02-28T11:36:33;28.20;;;0.80;;
3817;SDS011;1924;48.078;11.516;2024-02-28T11:39:01;28.40;;;0.80;;
3817;SDS011;1924;48.078;11.516;2024-02-28T11:41:28;28.20;;;0.80;;
3817;SDS011;1924;48.078;11.516;2024-02-28T11:43:55;28.30;;;0.80;;
3817;SDS011;1924;48.078;11.516;2024-02-28T11:46:22;28.20;;;0.80;;
3817;SDS011;1924;48.078;11.516;2024-02-28T11:48:49;28.30;;;0.80;;
3817;SDS011;1924;48.078;11.516;2024-02-28T11:51:16;28.27;;;0.80;;
3817;SDS011;1924;48.078;11.516;2024-02-28T11:53:44;28.30;;;0.80;;
3817;SDS011;1924;48.078;11.516;2024-02-28T11:56:11;28.30;;;0.80;;
3817;SDS011;1924;48.078;11.516;2024-02-28T11:58:48;28.30;;;0.80;;
3817;SDS011;1924;48.078;11.516;2024-02-28T12:01:16;28.40;;;0.80;;
3817;SDS011;1924;48.078;11.516;2024-02-28T12:03:44;28.50;;;0.80;;
3817;SDS011;1924;48.078;11.516;2024-02-28T12:06:11;28.50;;;0.80;;
3817;SDS011;1924;48.078;11.516;2024-02-28T12:08:38;28.50;;;0.80;;
3817;SDS011;1924;48.078;11.516;2024-02-28T12:11:07;28.40;;;0.80;;
3817;SDS011;1924;48.078;11.516;2024-02-28T12:13:36;28.37;;;0.80;;
3817;SDS011;1924;48.078;11.516;2024-02-28T12:16:03;28.40;;;0.80;;
3817;SDS011;1924;48.078;11.516;2024-02-28T12:18:30;28.40;;;0.80;;
3817;SDS011;1924;48.078;11.516;2024-02-28T12:20:57;28.30;;;0.80;;
3817;SDS011;1924;48.078;11.516;2024-02-28T12:23:24;28.30;;;0.80;;
3817;SDS011;1924;48.078;11.516;2024-02-28T12:25:50;28.20;;;0.80;;
3817;SDS011;1924;48.078;11.516;2024-02-28T12:28:19;28.20;;;0.80;;
3817;SDS011;1924;48.078;11.516;2024-02-28T12:30:45;28.20;;;0.80;;
3817;SDS011;1924;48.078;11.516;2024-02-28T12:33:12;28.30;;;0.80;;
3817;SDS011;1924;48.078;11.516;2024-02-28T12:35:39;28.37;;;0.80;;
3817;SDS011;1924;48.078;11.516;2024-02-28T12:38:06;28.27;;;0.80;;
3817;SDS011;1924;48.078;11.516;2024-02-28T12:40:33;28.10;;;0.80;;
3817;SDS011;1924;48.078;11.516;2024-02-28T12:43:00;28.30;;;0.80;;
3817;SDS011;1924;48.078;11.516;2024-02-28T12:45:28;28.20;;;0.80;;
3817;SDS011;1924;48.078;11.516;2024-02-28T12:47:55;28.20;;;0.80;;
3817;SDS011;1924;48.078;11.516;2024-02-28T12:50:23;28.23;;;0.80;;
3817;SDS011;1924;48.078;11.516;2024-02-28T12:52:50;28.20;;;0.80;;
3817;SDS011;1924;48.078;11.516;2024-02-28T12:55:18;28.40;;;0.80;;
3817;SDS011;1924;48.078;11.516;2024-02-28T12:57:45;28.27;;;0.80;;
3817;SDS011;1924;48.078;11.516;2024-02-28T13:00:12;28.30;;;0.80;;
3817;SDS011;1924;48.078;11.516;2024-02-28T13:02:40;28.30;;;0.80;;
3817;SDS011;1924;48.078;11.516;2024-02-28T13:05:07;28.20;;;0.80;;
3817;SDS011;1924;48.078;11.516;2024-02-28T13:07:35;28.20;;;0.80;;
3817;SDS011;1924;48.078;11.516;2024-02-28T13:10:03;28.30;;;0.80;;
3817;SDS011;1924;48.078;11.516;2024-02-28T13:12:31;28.10;;;0.80;;
3817;SDS011;1924;48.078;11.516;2024-02-28T13:14:58;28.40;;;0.80;;
3817;SDS011;1924;48.078;11.516;2024-02-28T13:17:25;28.30;;;0.80;;
3817;SDS011;1924;48.078;11.516;2024-02-28T13:19:53;28.40;;;0.80;;
3817;SDS011;1924;48.078;11.516;2024-02-28T13:22:20;28.40;;;0.80;;
3817;SDS011;1924;48.078;11.516;2024-02-28T13:24:46;28.20;;;0.80;;
3817;SDS011;1924;48.078;11.516;2024-02-28T13:27:13;28.20;;;0.80;;
3817;SDS011;1924;48.078;11.516;2024-02-28T13:29:40;28.30;;;0.80;;
3817;SDS011;1924;48.078;11.516;2024-02-28T13:32:07;28.40;;;0.80;;
3817;SDS011;1924;48.078;11.516;2024-02-28T13:34:33;28.40;;;0.80;;
3817;SDS011;1924;48.078;11.516;2024-02-28T13:37:02;28.10;;;0.80;;
3817;SDS011;1924;48.078;11.516;2024-02-28T13:39:28;28.20;;;0.80;;
3817;SDS011;1924;48.078;11.516;2024-02-28T13:41:55;28.20;;;0.80;;
3817;SDS011;1924;48.078;11.516;2024-02-28T13:44:22;28.07;;;0.80;;
3817;SDS011;1924;48.078;11.516;2024-02-28T13:46:49;28.30;;;0.80;;
3817;SDS011;1924;48.078;11.516;2024-02-28T13:49:18;28.07;;;0.80;;
3817;SDS011;1924;48.078;11.516;2024-02-28T13:51:45;28.30;;;0.80;;
3817;SDS011;1924;48.078;11.516;2024-02-28T13:54:15;28.30;;;0.80;;
3817;SDS011;1924;48.078;11.516;2024-02-28T13:56:42;28.30;;;0.80;;
3817;SDS011;1924;48.078;11.516;2024-02-28T13:59:09;28.07;;;0.80;;
3817;SDS011;1924;48.078;11.516;2024-02-28T14:01:36;28.03;;;0.80;;
3817;SDS011;1924;48.078;11.516;2024-02-28T14:04:03;28.17;;;0.80;;
3817;SDS011;1924;48.078;11.516;2024-02-28T14:06:30;28.40;;;0.80;;
3817;SDS011;1924;48.078;11.516;2024-02-28T14:08:57;28.30;;;0.80;;
3817;SDS011;1924;48.078;11.516;2024-02-28T14:11:25;28.10;;;0.80;;
3817;SDS011;1924;48.078;11.516;2024-02-28T14:13:52;28.40;;;0.80;;
3817;SDS011;1924;48.078;11.516;2024-02-28T14:16:19;28.40;;;0.80;;
3817;SDS011;1924;48.078;11.516;2024-02-28T14:18:45;28.20;;;0.80;;
3817;SDS011;1924;48.078;11.516;2024-02-28T14:21:12;28.00;;;0.80;;
3817;SDS011;1924;48.078;11.516;2024-02-28T14:23:39;28.30;;;0.80;;
3817;SDS011;1924;48.078;11.516;2024-02-28T14:26:07;28.30;;;0.80;;
3817;SDS011;1924;48.078;11.516;2024-02-28T14:28:35;28.30;;;0.80;;
3817;SDS011;1924;48.078;11.516;2024-02-28T14:31:05;28.10;;;0.80;;
3817;SDS011;1924;48.078;11.516;2024-02-28T14:33:32;28.10;;;0.80;;
3817;SDS011;1924;48.078;11.516;2024-02-28T14:35:59;28.10;;;0.80;;
3817;SDS011;1924;48.078;11.516;2024-02-28T14:38:28;28.20;;;0.80;;
3817;SDS011;1924;48.078;11.516;2024-02-28T14:40:55;28.20;;;0.80;;
3817;SDS011;1924;48.078;11.516;2024-02-28T14:43:22;28.20;;;0.80;;
3817;SDS011;1924;48.078;11.516;2024-02-28T14:45:50;28.17;;;0.80;;
3817;SDS011;1924;48.078;11.516;2024-02-28T14:48:17;28.20;;;0.80;;
3817;SDS011;1924;48.078;11.516;2024-02-28T14:50:44;28.30;;;0.80;;
3817;SDS011;1924;48.078;11.516;2024-02-28T14:53:11;28.10;;;0.80;;
3817;SDS011;1924;48.078;11.516;2024-02-28T14:55:38;28.30;;;0.80;;
3817;SDS011;1924;48.078;11.516;2024-02-28T14:58:05;28.30;;;0.80;;
3817;SDS011;1924;48.078;11.516;2024-02-28T15:00:31;28.20;;;0.80;;
3817;SDS011;1924;48.078;11.516;2024-02-28T15:02:59;28.50;;;0.80;;
3817;SDS011;1924;48.078;11.516;2024-02-28T15:05:26;28.20;;;0.80;;
3817;SDS011;1924;48.078;11.516;2024-02-28T15:07:53;28.40;;;0.80;;
3817;SDS011;1924;48.078;11.516;2024-02-28T15:10:20;28.20;;;0.80;;
3817;SDS011;1924;48.078;11.516;2024-02-28T15:12:47;28.10;;;0.80;;
3817;SDS011;1924;48.078;11.516;2024-02-28T15:15:14;28.30;;;0.80;;
3817;SDS011;1924;48.078;11.516;2024-02-28T15:17:41;28.30;;;0.80;;
3817;SDS011;1924;48.078;11.516;2024-02-28T15:20:09;28.10;;;0.80;;
3817;SDS011;1924;48.078;11.516;2024-02-28T15:22:36;28.20;;;0.80;;
3817;SDS011;1924;48.078;11.516;2024-02-28T15:25:04;28.00;;;0.80;;
3817;SDS011;1924;48.078;11.516;2024-02-28T15:27:31;28.30;;;0.80;;
3817;SDS011;1924;48.078;11.516;2024-02-28T15:29:58;28.30;;;0.80;;
3817;SDS011;1924;48.078;11.516;2024-02-28T15:32:24;28.20;;;0.80;;
3817;SDS011;1924;48.078;11.516;2024-02-28T15:34:51;28.83;;;0.80;;
3817;SDS011;1924;48.078;11.516;2024-02-28T15:37:19;28.20;;;0.80;;
3817;SDS011;1924;48.078;11.516;2024-02-28T15:39:46;28.03;;;0.80;;
3817;SDS011;1924;48.078;11.516;2024-02-28T15:42:13;28.20;;;0.80;;
3817;SDS011;1924;48.078;11.516;2024-02-28T15:44:40;28.20;;;0.80;;
3817;SDS011;1924;48.078;11.516;2024-02-28T15:47:07;28.30;;;0.80;;
3817;SDS011;1924;48.078;11.516;2024-02-28T15:49:35;28.30;;;0.80;;
3817;SDS011;1924;48.078;11.516;2024-02-28T15:52:01;28.20;;;0.80;;
3817;SDS011;1924;48.078;11.516;2024-02-28T15:54:31;28.30;;;0.80;;
3817;SDS011;1924;48.078;11.516;2024-02-28T15:56:58;28.30;;;0.80;;
3817;SDS011;1924;48.078;11.516;2024-02-28T15:59:25;28.20;;;0.80;;
3817;SDS011;1924;48.078;11.516;2024-02-28T16:01:52;28.10;;;0.80;;
3817;SDS011;1924;48.078;11.516;2024-02-28T16:04:19;28.10;;;0.80;;
3817;SDS011;1924;48.078;11.516;2024-02-28T16:06:45;28.20;;;0.80;;
3817;SDS011;1924;48.078;11.516;2024-02-28T16:09:12;28.07;;;0.80;;
3817;SDS011;1924;48.078;11.516;2024-02-28T16:11:41;28.30;;;0.80;;
3817;SDS011;1924;48.078;11.516;2024-02-28T16:14:09;28.37;;;0.90;;
3817;SDS011;1924;48.078;11.516;2024-02-28T16:16:36;28.17;;;0.80;;
3817;SDS011;1924;48.078;11.516;2024-02-28T16:19:03;28.20;;;0.90;;
3817;SDS011;1924;48.078;11.516;2024-02-28T16:21:30;28.40;;;0.80;;
3817;SDS011;1924;48.078;11.516;2024-02-28T16:23:57;28.30;;;0.80;;
3817;SDS011;1924;48.078;11.516;2024-02-28T16:26:24;28.10;;;0.80;;
3817;SDS011;1924;48.078;11.516;2024-02-28T16:28:52;28.10;;;0.80;;
3817;SDS011;1924;48.078;11.516;2024-02-28T16:31:19;28.30;;;0.80;;
3817;SDS011;1924;48.078;11.516;2024-02-28T16:33:46;28.57;;;0.80;;
3817;SDS011;1924;48.078;11.516;2024-02-28T16:36:13;28.30;;;0.90;;
3817;SDS011;1924;48.078;11.516;2024-02-28T16:38:40;28.17;;;0.80;;
3817;SDS011;1924;48.078;11.516;2024-02-28T16:41:07;28.10;;;0.80;;
3817;SDS011;1924;48.078;11.516;2024-02-28T16:43:34;28.30;;;0.80;;
3817;SDS011;1924;48.078;11.516;2024-02-28T16:46:03;28.20;;;0.80;;
3817;SDS011;1924;48.078;11.516;2024-02-28T16:48:30;28.50;;;0.80;;
3817;SDS011;1924;48.078;11.516;2024-02-28T16:50:57;28.30;;;0.80;;
3817;SDS011;1924;48.078;11.516;2024-02-28T16:53:26;28.10;;;0.80;;
3817;SDS011;1924;48.078;11.516;2024-02-28T16:55:55;28.10;;;0.80;;
3817;SDS011;1924;48.078;11.516;2024-02-28T16:58:26;28.20;;;0.80;;
3817;SDS011;1924;48.078;11.516;2024-02-28T17:00:54;28.20;;;0.80;;
3817;SDS011;1924;48.078;11.516;2024-02-28T17:03:23;28.17;;;0.77;;
3817;SDS011;1924;48.078;11.516;2024-02-28T17:05:49;28.17;;;0.80;;
3817;SDS011;1924;48.078;11.516;2024-02-28T17:08:16;28.00;;;0.80;;
3817;SDS011;1924;48.078;11.516;2024-02-28T17:10:43;28.17;;;0.80;;
3817;SDS011;1924;48.078;11.516;2024-02-28T17:13:09;28.00;;;0.80;;
3817;SDS011;1924;48.078;11.516;2024-02-28T17:15:36;28.20;;;0.80;;
3817;SDS011;1924;48.078;11.516;2024-02-28T17:18:03;28.10;;;0.80;;
3817;SDS011;1924;48.078;11.516;2024-02-28T17:20:31;28.13;;;0.80;;
3817;SDS011;1924;48.078;11.516;2024-02-28T17:22:58;28.10;;;0.80;;
3817;SDS011;1924;48.078;11.516;2024-02-28T17:25:25;28.10;;;0.77;;
3817;SDS011;1924;48.078;11.516;2024-02-28T17:27:52;28.20;;;0.80;;
3817;SDS011;1924;48.078;11.516;2024-02-28T17:30:18;28.07;;;0.80;;
3817;SDS011;1924;48.078;11.516;2024-02-28T17:32:46;28.00;;;0.80;;
3817;SDS011;1924;48.078;11.516;2024-02-28T17:35:24;28.10;;;0.80;;
3817;SDS011;1924;48.078;11.516;2024-02-28T17:37:51;28.10;;;0.80;;
3817;SDS011;1924;48.078;11.516;2024-02-28T17:40:18;28.00;;;0.80;;
3817;SDS011;1924;48.078;11.516;2024-02-28T17:42:45;28.20;;;0.80;;
3817;SDS011;1924;48.078;11.516;2024-02-28T17:45:14;28.20;;;0.80;;
3817;SDS011;1924;48.078;11.516;2024-02-28T17:47:42;28.20;;;0.80;;
3817;SDS011;1924;48.078;11.516;2024-02-28T17:50:09;28.13;;;0.80;;
3817;SDS011;1924;48.078;11.516;2024-02-28T17:52:38;28.10;;;0.80;;
3817;SDS011;1924;48.078;11.516;2024-02-28T17:55:05;28.20;;;0.80;;
3817;SDS011;1924;48.078;11.516;2024-02-28T17:57:33;28.00;;;0.80;;
3817;SDS011;1924;48.078;11.516;2024-02-28T18:00:00;28.20;;;0.80;;
3817;SDS011;1924;48.078;11.516;2024-02-28T18:02:28;28.17;;;0.80;;
3817;SDS011;1924;48.078;11.516;2024-02-28T18:04:54;28.30;;;0.80;;
3817;SDS011;1924;48.078;11.516;2024-02-28T18:07:23;28.20;;;0.80;;
3817;SDS011;1924;48.078;11.516;2024-02-28T18:09:51;28.00;;;0.80;;
3817;SDS011;1924;48.078;11.516;2024-02-28T18:12:18;28.30;;;0.80;;
3817;SDS011;1924;48.078;11.516;2024-02-28T18:14:45;28.00;;;0.80;;
3817;SDS011;1924;48.078;11.516;2024-02-28T18:17:12;28.20;;;0.80;;
3817;SDS011;1924;48.078;11.516;2024-02-28T18:19:39;28.10;;;0.80;;
3817;SDS011;1924;48.078;11.516;2024-02-28T18:22:05;28.10;;;0.80;;
3817;SDS011;1924;48.078;11.516;2024-02-28T18:24:33;28.20;;;0.80;;
3817;SDS011;1924;48.078;11.516;2024-02-28T18:27:04;28.23;;;0.80;;
3817;SDS011;1924;48.078;11.516;2024-02-28T18:29:34;28.20;;;0.80;;
3817;SDS011;1924;48.078;11.516;2024-02-28T18:32:01;28.10;;;0.80;;
3817;SDS011;1924;48.078;11.516;2024-02-28T18:34:28;28.07;;;0.80;;
3817;SDS011;1924;48.078;11.516;2024-02-28T18:36:54;28.20;;;0.80;;